createdAt,value
2019-05-30T00:00:53.909Z,15.30
2019-05-30T00:05:58.059Z,15.29
2019-05-30T00:11:01.182Z,15.30
2019-05-30T00:16:05.563Z,15.29
2019-05-30T00:21:08.580Z,15.28
2019-05-30T00:26:11.315Z,15.29
2019-05-30T00:31:14.049Z,15.29
2019-05-30T00:36:16.827Z,15.28
2019-05-30T00:41:19.656Z,15.25
2019-05-30T00:46:24.136Z,15.18
2019-05-30T00:51:27.003Z,15.08
2019-05-30T00:56:29.788Z,15.04
2019-05-30T01:01:32.526Z,15.03
2019-05-30T01:06:35.265Z,14.95
2019-05-30T01:11:38.032Z,14.90
2019-05-30T01:16:42.701Z,14.92
2019-05-30T01:21:45.606Z,14.90
2019-05-30T01:26:48.506Z,14.91
2019-05-30T01:31:51.241Z,14.96
2019-05-30T01:36:53.966Z,14.97
2019-05-30T01:41:57.738Z,14.89
2019-05-30T01:47:00.544Z,14.93
2019-05-30T01:52:04.469Z,14.92
2019-05-30T01:57:07.332Z,14.89
2019-05-30T02:02:10.063Z,14.89
2019-05-30T02:07:12.808Z,14.88
2019-05-30T02:12:15.583Z,14.81
2019-05-30T02:17:18.328Z,14.82
2019-05-30T02:22:21.059Z,14.77
2019-05-30T02:27:24.142Z,14.72
2019-05-30T02:32:26.974Z,14.68
2019-05-30T02:37:29.704Z,14.67
2019-05-30T02:42:32.429Z,14.63
2019-05-30T02:47:35.176Z,14.64
2019-05-30T02:52:37.922Z,14.62
2019-05-30T02:57:40.693Z,14.70
2019-05-30T03:02:43.493Z,14.77
2019-05-30T03:07:46.232Z,14.81
2019-05-30T03:12:49.010Z,14.85
2019-05-30T03:17:51.785Z,14.90
2019-05-30T03:22:54.528Z,14.91
2019-05-30T03:27:57.262Z,14.98
2019-05-30T03:33:07.573Z,15.15
2019-05-30T03:38:05.801Z,15.28
2019-05-30T03:43:11.256Z,15.42
2019-05-30T03:48:19.275Z,15.48
2019-05-30T03:53:22.525Z,15.53
2019-05-30T03:58:43.213Z,15.59
2019-05-30T04:04:08.994Z,15.71
2019-05-30T04:09:22.422Z,15.77
2019-05-30T04:14:27.503Z,15.87
2019-05-30T04:19:30.226Z,16.01
2019-05-30T04:24:32.990Z,16.03
2019-05-30T04:29:35.721Z,16.11
2019-05-30T04:34:38.444Z,16.22
2019-05-30T04:39:41.182Z,16.39
2019-05-30T04:44:43.917Z,16.47
2019-05-30T04:49:46.674Z,16.62
2019-05-30T04:54:49.406Z,16.74
2019-05-30T04:59:52.144Z,16.91
2019-05-30T05:04:54.890Z,17.11
2019-05-30T05:09:57.628Z,17.27
2019-05-30T05:15:00.386Z,17.43
2019-05-30T05:20:03.734Z,17.61
2019-05-30T05:25:06.791Z,17.73
2019-05-30T05:30:10.182Z,17.88
2019-05-30T05:35:14.664Z,17.94
2019-05-30T05:40:18.101Z,18.25
2019-05-30T05:45:22.663Z,18.39
2019-05-30T05:50:25.889Z,18.57
2019-05-30T05:55:29.163Z,18.68
2019-05-30T06:00:32.283Z,18.99
2019-05-30T06:05:35.549Z,19.21
2019-05-30T06:10:38.537Z,19.26
2019-05-30T06:15:41.486Z,19.40
2019-05-30T06:20:44.430Z,19.61
2019-05-30T06:25:47.395Z,19.91
2019-05-30T06:30:50.346Z,20.18
2019-05-30T06:35:53.315Z,19.94
2019-05-30T06:40:56.287Z,20.48
2019-05-30T06:45:59.976Z,20.59
2019-05-30T06:51:03.036Z,20.56
2019-05-30T06:56:05.959Z,20.69
2019-05-30T07:01:08.904Z,21.04
2019-05-30T07:06:12.516Z,21.23
2019-05-30T07:11:15.522Z,21.33
2019-05-30T07:16:18.251Z,21.28
2019-05-30T07:21:21.010Z,21.26
2019-05-30T07:26:23.889Z,21.31
2019-05-30T07:31:27.985Z,21.15
2019-05-30T07:36:30.784Z,21.03
2019-05-30T07:41:34.552Z,20.88
2019-05-30T07:46:37.592Z,21.15
2019-05-30T07:51:40.312Z,21.24
2019-05-30T07:56:43.041Z,21.24
2019-05-30T08:01:45.783Z,21.04
2019-05-30T08:06:48.507Z,20.84
2019-05-30T08:11:51.225Z,20.82
2019-05-30T08:16:53.950Z,21.02
2019-05-30T08:21:56.677Z,21.13
2019-05-30T08:26:59.420Z,20.93
2019-05-30T08:32:02.222Z,20.73
2019-05-30T08:37:04.975Z,20.40
2019-05-30T08:42:07.714Z,20.20
2019-05-30T08:47:10.469Z,20.31
2019-05-30T08:52:13.217Z,20.43
2019-05-30T08:57:16.223Z,20.48
2019-05-30T09:02:18.951Z,20.61
2019-05-30T09:07:21.689Z,20.80
2019-05-30T09:12:25.262Z,20.80
2019-05-30T09:17:29.063Z,20.83
2019-05-30T09:22:32.867Z,20.85
2019-05-30T09:27:35.958Z,20.95
2019-05-30T09:32:41.165Z,21.08
2019-05-30T09:37:45.765Z,21.66
2019-05-30T09:42:50.377Z,21.73
2019-05-30T09:47:55.615Z,21.75
2019-05-30T09:52:58.348Z,21.99
2019-05-30T09:58:01.070Z,22.11
2019-05-30T10:03:05.437Z,22.05
2019-05-30T10:08:08.233Z,22.15
2019-05-30T10:13:10.987Z,22.22
2019-05-30T10:18:13.715Z,22.53
2019-05-30T10:23:16.462Z,22.14
2019-05-30T10:28:19.262Z,22.51
2019-05-30T10:33:21.992Z,23.31
2019-05-30T10:38:26.132Z,23.75
2019-05-30T10:43:28.919Z,23.86
2019-05-30T10:48:31.661Z,24.57
2019-05-30T10:53:37.456Z,24.55
2019-05-30T10:58:39.128Z,24.48
2019-05-30T11:03:41.927Z,24.69
2019-05-30T11:08:47.919Z,24.75
2019-05-30T11:13:53.191Z,24.22
2019-05-30T11:18:56.240Z,23.93
2019-05-30T11:23:58.979Z,23.49
2019-05-30T11:29:01.755Z,23.30
2019-05-30T11:34:04.511Z,23.19
2019-05-30T11:39:07.253Z,23.10
2019-05-30T11:44:09.988Z,23.04
2019-05-30T11:49:12.777Z,22.79
2019-05-30T11:54:15.512Z,22.61
2019-05-30T11:59:18.238Z,22.54
2019-05-30T12:04:21.147Z,22.46
2019-05-30T12:09:24.538Z,22.73
2019-05-30T12:14:27.233Z,22.65
2019-05-30T12:19:29.960Z,22.50
2019-05-30T12:24:32.702Z,22.65
2019-05-30T12:29:35.422Z,22.95
2019-05-30T12:34:38.154Z,23.17
2019-05-30T12:39:40.886Z,23.06
2019-05-30T12:44:43.623Z,22.73
2019-05-30T12:49:46.358Z,22.48
2019-05-30T12:54:49.093Z,22.46
2019-05-30T12:59:51.837Z,22.34
2019-05-30T13:04:54.787Z,22.49
2019-05-30T13:09:57.554Z,22.43
2019-05-30T13:15:14.010Z,22.34
2019-05-30T13:20:17.333Z,22.42
2019-05-30T13:30:24.845Z,22.78
2019-05-30T13:35:27.677Z,22.71
2019-05-30T13:40:30.692Z,22.85
2019-05-30T13:45:33.640Z,22.74
2019-05-30T13:50:36.368Z,22.73
2019-05-30T13:55:39.145Z,23.12
2019-05-30T14:00:41.865Z,23.19
2019-05-30T14:05:44.571Z,23.25
2019-05-30T14:10:47.318Z,23.61
2019-05-30T14:15:50.125Z,24.08
2019-05-30T14:20:52.837Z,24.01
2019-05-30T14:25:55.547Z,23.84
2019-05-30T14:30:58.314Z,24.02
2019-05-30T14:36:04.570Z,24.11
2019-05-30T14:41:06.881Z,23.90
2019-05-30T14:46:10.897Z,23.66
2019-05-30T14:51:13.609Z,23.40
2019-05-30T14:56:17.561Z,23.19
2019-05-30T15:01:20.466Z,23.07
2019-05-30T15:06:23.217Z,22.91
2019-05-30T15:11:25.984Z,23.17
2019-05-30T15:16:28.714Z,23.27
2019-05-30T15:21:31.465Z,22.87
2019-05-30T15:26:34.184Z,22.49
2019-05-30T15:31:36.906Z,22.48
2019-05-30T15:36:39.640Z,22.54
2019-05-30T15:41:42.368Z,22.69
2019-05-30T15:46:45.084Z,22.64
2019-05-30T15:51:47.824Z,22.44
2019-05-30T15:56:50.554Z,22.75
2019-05-30T16:01:53.296Z,23.14
2019-05-30T16:06:56.022Z,23.58
2019-05-30T16:11:58.734Z,23.46
2019-05-30T16:17:01.463Z,23.30
2019-05-30T16:22:04.184Z,23.04
2019-05-30T16:27:06.900Z,23.31
2019-05-30T16:32:09.626Z,23.61
2019-05-30T16:37:12.448Z,23.34
2019-05-30T16:42:16.291Z,23.34
2019-05-30T16:47:19.081Z,23.25
2019-05-30T16:52:23.055Z,23.05
2019-05-30T16:57:26.730Z,23.02
2019-05-30T17:02:29.536Z,23.25
2019-05-30T17:07:32.259Z,23.13
2019-05-30T17:12:35.284Z,23.10
2019-05-30T17:17:38.000Z,22.90
2019-05-30T17:22:40.715Z,22.59
2019-05-30T17:27:43.440Z,22.63
2019-05-30T17:32:46.172Z,22.82
2019-05-30T17:37:49.293Z,22.71
2019-05-30T17:42:52.105Z,22.53
2019-05-30T17:48:02.649Z,22.46
2019-05-30T17:52:59.827Z,22.31
2019-05-30T17:58:02.654Z,22.35
2019-05-30T18:03:05.372Z,22.45
2019-05-30T18:08:08.091Z,22.32
2019-05-30T18:13:10.815Z,22.18
2019-05-30T18:18:13.545Z,22.03
2019-05-30T18:23:16.335Z,21.95
2019-05-30T18:28:19.137Z,21.31
2019-05-30T18:33:22.174Z,21.82
2019-05-30T18:38:26.919Z,21.79
2019-05-30T18:43:30.935Z,21.75
2019-05-30T18:48:33.771Z,21.81
2019-05-30T18:53:36.792Z,21.83
2019-05-30T18:58:39.575Z,21.95
2019-05-30T19:03:42.410Z,22.01
2019-05-30T19:08:45.105Z,22.04
2019-05-30T19:13:47.870Z,21.76
2019-05-30T19:18:50.574Z,21.57
2019-05-30T19:23:53.294Z,21.27
2019-05-30T19:28:56.029Z,21.00
2019-05-30T19:33:58.752Z,20.88
2019-05-30T19:39:01.498Z,20.78
2019-05-30T19:44:04.225Z,20.74
2019-05-30T19:49:06.966Z,20.71
2019-05-30T19:54:09.693Z,20.74
2019-05-30T19:59:12.406Z,20.65
2019-05-30T20:04:15.117Z,20.52
2019-05-30T20:09:17.869Z,20.38
2019-05-30T20:14:20.591Z,20.28
2019-05-30T20:19:23.322Z,20.15
2019-05-30T20:24:26.032Z,20.10
2019-05-30T20:29:28.798Z,20.06
2019-05-30T20:34:32.922Z,20.09
2019-05-30T20:39:36.587Z,20.06
2019-05-30T20:44:39.522Z,19.95
2019-05-30T20:49:43.385Z,19.85
2019-05-30T20:54:47.638Z,19.78
2019-05-30T20:59:50.415Z,19.74
2019-05-30T21:04:53.206Z,19.79
2019-05-30T21:09:56.355Z,19.88
2019-05-30T21:15:01.675Z,19.95
2019-05-30T21:20:04.673Z,20.02
2019-05-30T21:25:07.785Z,20.05
2019-05-30T21:30:11.108Z,20.06
2019-05-30T21:35:14.241Z,20.06
2019-05-30T21:40:17.156Z,20.05
2019-05-30T21:45:19.881Z,20.07
2019-05-30T21:50:22.637Z,20.09
2019-05-30T21:55:25.378Z,20.03
2019-05-30T22:01:30.827Z,19.91
2019-05-30T22:06:33.849Z,19.86
2019-05-30T22:11:36.629Z,19.83
2019-05-30T22:16:39.327Z,19.77
2019-05-30T22:21:42.064Z,19.76
2019-05-30T22:26:44.742Z,19.76
2019-05-30T22:31:48.509Z,19.77
2019-05-30T22:36:51.353Z,19.92
2019-05-30T22:41:54.060Z,20.02
2019-05-30T22:46:57.027Z,20.03
2019-05-30T22:51:59.789Z,20.09
2019-05-30T22:57:02.576Z,20.21
2019-05-30T23:02:05.346Z,20.21
2019-05-30T23:07:08.068Z,20.23
2019-05-30T23:12:10.799Z,20.26
2019-05-30T23:17:13.526Z,20.06
2019-05-30T23:22:16.244Z,20.25
2019-05-30T23:27:18.960Z,20.34
2019-05-30T23:32:21.712Z,20.26
2019-05-30T23:37:24.436Z,20.23
2019-05-30T23:42:27.172Z,20.21
2019-05-30T23:47:29.996Z,20.22
2019-05-30T23:52:32.839Z,20.19
2019-05-30T23:57:35.558Z,20.15
